Bon Accord, Canada
Current Conditions -  °F | °C
As of 11:29 AM on Wednesday 26 Nov 2014 (Local Time) from CYED Reporting Station
Overcast Overcast  
Wind Chill: 13°   Ceiling: 1000
Heat Index: 19°   Visibility: 9mi
Dew Point: 14°   Wind: 5mph
Humidity: 80%   Direction: 170°S
Pressure: 30.16"   Gusts: NA
Location:  53.83°N, 113.42°W
Report Text: CYED 261829Z AUTO 17004KT 9SM BKN010 OVC015 OVC040 OVC079 M07/M10 A3016
Loading
Personal Weather Stations






























Interactive Weather Map New forecast layout! Learn more

10-Day Weather Forecast

Advertisements
Track Severe Weather on mobile